sensor_id;sensor_type;location;lat;lon;timestamp;P1;durP1;ratioP1;P2;durP2;ratioP2
73823;SDS011;62154;54.914;73.444;2023-05-14T00:00:38;7.90;;;3.90;;
73823;SDS011;62154;54.914;73.444;2023-05-14T00:03:06;6.53;;;3.65;;
73823;SDS011;62154;54.914;73.444;2023-05-14T00:05:32;6.93;;;3.70;;
73823;SDS011;62154;54.914;73.444;2023-05-14T00:08:00;5.80;;;3.90;;
73823;SDS011;62154;54.914;73.444;2023-05-14T00:10:27;7.32;;;3.75;;
73823;SDS011;62154;54.914;73.444;2023-05-14T00:12:54;7.72;;;4.10;;
73823;SDS011;62154;54.914;73.444;2023-05-14T00:15:21;6.85;;;4.32;;
73823;SDS011;62154;54.914;73.444;2023-05-14T00:17:48;6.13;;;3.70;;
73823;SDS011;62154;54.914;73.444;2023-05-14T00:20:15;6.13;;;4.10;;
73823;SDS011;62154;54.914;73.444;2023-05-14T00:22:42;9.05;;;4.20;;
73823;SDS011;62154;54.914;73.444;2023-05-14T00:25:09;8.77;;;3.72;;
73823;SDS011;62154;54.914;73.444;2023-05-14T00:27:37;9.00;;;4.35;;
73823;SDS011;62154;54.914;73.444;2023-05-14T00:30:04;6.75;;;4.35;;
73823;SDS011;62154;54.914;73.444;2023-05-14T00:32:34;6.35;;;3.35;;
73823;SDS011;62154;54.914;73.444;2023-05-14T00:35:01;6.07;;;4.22;;
73823;SDS011;62154;54.914;73.444;2023-05-14T00:37:31;8.93;;;4.07;;
73823;SDS011;62154;54.914;73.444;2023-05-14T00:39:58;6.25;;;4.43;;
73823;SDS011;62154;54.914;73.444;2023-05-14T00:42:25;6.97;;;4.50;;
73823;SDS011;62154;54.914;73.444;2023-05-14T00:44:52;6.20;;;3.78;;
73823;SDS011;62154;54.914;73.444;2023-05-14T00:47:19;7.53;;;4.47;;
73823;SDS011;62154;54.914;73.444;2023-05-14T00:49:46;7.35;;;4.30;;
73823;SDS011;62154;54.914;73.444;2023-05-14T00:52:14;7.28;;;4.38;;
73823;SDS011;62154;54.914;73.444;2023-05-14T00:54:42;8.27;;;5.25;;
73823;SDS011;62154;54.914;73.444;2023-05-14T00:57:10;12.13;;;6.60;;
73823;SDS011;62154;54.914;73.444;2023-05-14T00:59:37;11.23;;;6.65;;
73823;SDS011;62154;54.914;73.444;2023-05-14T01:02:08;10.50;;;5.97;;
73823;SDS011;62154;54.914;73.444;2023-05-14T01:04:34;8.90;;;5.82;;
73823;SDS011;62154;54.914;73.444;2023-05-14T01:09:39;8.65;;;5.63;;
73823;SDS011;62154;54.914;73.444;2023-05-14T01:12:13;8.70;;;5.27;;
73823;SDS011;62154;54.914;73.444;2023-05-14T01:14:53;9.88;;;5.40;;
73823;SDS011;62154;54.914;73.444;2023-05-14T01:17:20;13.90;;;6.30;;
73823;SDS011;62154;54.914;73.444;2023-05-14T01:19:48;9.25;;;5.72;;
73823;SDS011;62154;54.914;73.444;2023-05-14T01:22:18;9.02;;;5.22;;
73823;SDS011;62154;54.914;73.444;2023-05-14T01:24:45;10.00;;;5.20;;
73823;SDS011;62154;54.914;73.444;2023-05-14T01:29:47;9.90;;;5.53;;
73823;SDS011;62154;54.914;73.444;2023-05-14T01:32:15;11.73;;;5.65;;
73823;SDS011;62154;54.914;73.444;2023-05-14T01:34:43;11.77;;;5.93;;
73823;SDS011;62154;54.914;73.444;2023-05-14T01:37:13;9.73;;;5.88;;
73823;SDS011;62154;54.914;73.444;2023-05-14T01:39:41;11.10;;;6.07;;
73823;SDS011;62154;54.914;73.444;2023-05-14T01:42:08;11.35;;;6.60;;
73823;SDS011;62154;54.914;73.444;2023-05-14T01:44:36;16.00;;;8.75;;
73823;SDS011;62154;54.914;73.444;2023-05-14T01:47:02;12.30;;;7.22;;
73823;SDS011;62154;54.914;73.444;2023-05-14T01:49:30;15.48;;;7.95;;
73823;SDS011;62154;54.914;73.444;2023-05-14T01:51:58;12.20;;;7.78;;
73823;SDS011;62154;54.914;73.444;2023-05-14T01:54:25;11.88;;;7.45;;
73823;SDS011;62154;54.914;73.444;2023-05-14T01:56:52;12.48;;;6.22;;
73823;SDS011;62154;54.914;73.444;2023-05-14T01:59:19;8.20;;;5.25;;
73823;SDS011;62154;54.914;73.444;2023-05-14T02:01:46;9.68;;;5.45;;
73823;SDS011;62154;54.914;73.444;2023-05-14T02:04:14;10.88;;;5.70;;
73823;SDS011;62154;54.914;73.444;2023-05-14T02:06:41;9.68;;;5.03;;
73823;SDS011;62154;54.914;73.444;2023-05-14T02:09:08;9.40;;;5.47;;
73823;SDS011;62154;54.914;73.444;2023-05-14T02:11:36;9.01;;;5.06;;
73823;SDS011;62154;54.914;73.444;2023-05-14T02:14:03;10.20;;;5.53;;
73823;SDS011;62154;54.914;73.444;2023-05-14T02:16:30;10.00;;;5.40;;
73823;SDS011;62154;54.914;73.444;2023-05-14T02:18:59;13.48;;;6.72;;
73823;SDS011;62154;54.914;73.444;2023-05-14T02:21:47;11.07;;;6.78;;
73823;SDS011;62154;54.914;73.444;2023-05-14T02:24:14;8.30;;;6.85;;
73823;SDS011;62154;54.914;73.444;2023-05-14T02:26:41;11.95;;;7.55;;
73823;SDS011;62154;54.914;73.444;2023-05-14T02:29:08;12.40;;;5.90;;
73823;SDS011;62154;54.914;73.444;2023-05-14T02:31:35;9.80;;;5.32;;
73823;SDS011;62154;54.914;73.444;2023-05-14T02:34:03;9.90;;;5.85;;
73823;SDS011;62154;54.914;73.444;2023-05-14T02:36:30;10.93;;;6.28;;
73823;SDS011;62154;54.914;73.444;2023-05-14T02:38:58;14.95;;;6.10;;
73823;SDS011;62154;54.914;73.444;2023-05-14T02:41:25;10.07;;;5.53;;
73823;SDS011;62154;54.914;73.444;2023-05-14T02:43:52;12.43;;;5.47;;
73823;SDS011;62154;54.914;73.444;2023-05-14T02:46:21;10.32;;;6.15;;
73823;SDS011;62154;54.914;73.444;2023-05-14T02:48:48;9.77;;;5.63;;
73823;SDS011;62154;54.914;73.444;2023-05-14T02:51:15;13.60;;;8.15;;
73823;SDS011;62154;54.914;73.444;2023-05-14T02:53:42;10.95;;;6.25;;
73823;SDS011;62154;54.914;73.444;2023-05-14T02:56:09;10.70;;;6.55;;
73823;SDS011;62154;54.914;73.444;2023-05-14T02:58:36;10.65;;;5.95;;
73823;SDS011;62154;54.914;73.444;2023-05-14T03:01:03;8.48;;;5.75;;
73823;SDS011;62154;54.914;73.444;2023-05-14T03:03:31;9.43;;;5.53;;
73823;SDS011;62154;54.914;73.444;2023-05-14T03:05:58;10.30;;;6.70;;
73823;SDS011;62154;54.914;73.444;2023-05-14T03:08:26;11.32;;;5.90;;
73823;SDS011;62154;54.914;73.444;2023-05-14T03:10:53;8.43;;;5.80;;
73823;SDS011;62154;54.914;73.444;2023-05-14T03:13:20;12.32;;;6.63;;
73823;SDS011;62154;54.914;73.444;2023-05-14T03:15:47;14.23;;;7.35;;
73823;SDS011;62154;54.914;73.444;2023-05-14T03:18:14;12.18;;;6.25;;
73823;SDS011;62154;54.914;73.444;2023-05-14T03:20:41;11.93;;;7.68;;
73823;SDS011;62154;54.914;73.444;2023-05-14T03:23:08;11.30;;;6.68;;
73823;SDS011;62154;54.914;73.444;2023-05-14T03:25:35;12.48;;;6.50;;
73823;SDS011;62154;54.914;73.444;2023-05-14T03:28:02;12.85;;;8.30;;
73823;SDS011;62154;54.914;73.444;2023-05-14T03:30:29;13.38;;;7.47;;
73823;SDS011;62154;54.914;73.444;2023-05-14T03:32:57;13.40;;;7.30;;
73823;SDS011;62154;54.914;73.444;2023-05-14T03:35:25;12.38;;;8.20;;
73823;SDS011;62154;54.914;73.444;2023-05-14T03:37:52;11.95;;;7.50;;
73823;SDS011;62154;54.914;73.444;2023-05-14T03:40:19;20.38;;;11.27;;
73823;SDS011;62154;54.914;73.444;2023-05-14T03:42:46;9.90;;;6.03;;
73823;SDS011;62154;54.914;73.444;2023-05-14T03:45:15;15.82;;;9.85;;
73823;SDS011;62154;54.914;73.444;2023-05-14T03:47:42;21.52;;;10.13;;
73823;SDS011;62154;54.914;73.444;2023-05-14T03:50:10;11.80;;;6.90;;
73823;SDS011;62154;54.914;73.444;2023-05-14T03:52:39;9.90;;;6.00;;
73823;SDS011;62154;54.914;73.444;2023-05-14T03:55:06;9.32;;;5.90;;
73823;SDS011;62154;54.914;73.444;2023-05-14T03:57:33;10.23;;;6.40;;
73823;SDS011;62154;54.914;73.444;2023-05-14T04:00:02;13.63;;;7.22;;
73823;SDS011;62154;54.914;73.444;2023-05-14T04:02:45;9.84;;;5.60;;
73823;SDS011;62154;54.914;73.444;2023-05-14T04:05:12;14.07;;;8.50;;
73823;SDS011;62154;54.914;73.444;2023-05-14T04:07:39;11.18;;;6.15;;
73823;SDS011;62154;54.914;73.444;2023-05-14T04:10:06;11.02;;;5.97;;
73823;SDS011;62154;54.914;73.444;2023-05-14T04:12:35;11.48;;;7.00;;
73823;SDS011;62154;54.914;73.444;2023-05-14T04:15:03;12.68;;;7.75;;
73823;SDS011;62154;54.914;73.444;2023-05-14T04:17:32;12.27;;;7.43;;
73823;SDS011;62154;54.914;73.444;2023-05-14T04:19:59;11.88;;;6.55;;
73823;SDS011;62154;54.914;73.444;2023-05-14T04:22:26;13.40;;;6.25;;
73823;SDS011;62154;54.914;73.444;2023-05-14T04:24:53;9.52;;;5.90;;
73823;SDS011;62154;54.914;73.444;2023-05-14T04:27:20;15.02;;;6.38;;
73823;SDS011;62154;54.914;73.444;2023-05-14T04:29:48;13.35;;;5.80;;
73823;SDS011;62154;54.914;73.444;2023-05-14T04:32:15;13.63;;;6.28;;
73823;SDS011;62154;54.914;73.444;2023-05-14T04:34:43;14.52;;;6.65;;
73823;SDS011;62154;54.914;73.444;2023-05-14T04:37:10;30.13;;;9.85;;
73823;SDS011;62154;54.914;73.444;2023-05-14T04:39:37;24.08;;;9.93;;
73823;SDS011;62154;54.914;73.444;2023-05-14T04:42:05;21.20;;;8.27;;
73823;SDS011;62154;54.914;73.444;2023-05-14T04:44:35;21.02;;;7.63;;
73823;SDS011;62154;54.914;73.444;2023-05-14T04:47:03;11.05;;;5.97;;
73823;SDS011;62154;54.914;73.444;2023-05-14T04:49:30;13.43;;;5.75;;
73823;SDS011;62154;54.914;73.444;2023-05-14T04:51:57;13.30;;;5.85;;
73823;SDS011;62154;54.914;73.444;2023-05-14T04:54:24;15.50;;;7.77;;
73823;SDS011;62154;54.914;73.444;2023-05-14T04:56:52;12.85;;;6.35;;
73823;SDS011;62154;54.914;73.444;2023-05-14T04:59:20;14.75;;;7.50;;
73823;SDS011;62154;54.914;73.444;2023-05-14T05:01:48;19.15;;;7.38;;
73823;SDS011;62154;54.914;73.444;2023-05-14T05:04:16;21.33;;;7.40;;
73823;SDS011;62154;54.914;73.444;2023-05-14T05:06:43;13.02;;;5.70;;
73823;SDS011;62154;54.914;73.444;2023-05-14T05:09:11;20.45;;;6.80;;
73823;SDS011;62154;54.914;73.444;2023-05-14T05:11:38;18.10;;;6.45;;
73823;SDS011;62154;54.914;73.444;2023-05-14T05:14:06;12.85;;;5.35;;
73823;SDS011;62154;54.914;73.444;2023-05-14T05:16:33;7.55;;;5.03;;
73823;SDS011;62154;54.914;73.444;2023-05-14T05:19:00;8.10;;;4.25;;
73823;SDS011;62154;54.914;73.444;2023-05-14T05:21:27;8.45;;;4.80;;
73823;SDS011;62154;54.914;73.444;2023-05-14T05:23:55;11.18;;;5.03;;
73823;SDS011;62154;54.914;73.444;2023-05-14T05:26:23;8.55;;;4.55;;
73823;SDS011;62154;54.914;73.444;2023-05-14T05:28:50;13.35;;;5.22;;
73823;SDS011;62154;54.914;73.444;2023-05-14T05:31:17;11.02;;;4.65;;
73823;SDS011;62154;54.914;73.444;2023-05-14T05:33:44;11.47;;;4.33;;
73823;SDS011;62154;54.914;73.444;2023-05-14T05:36:11;9.27;;;3.78;;
73823;SDS011;62154;54.914;73.444;2023-05-14T05:38:38;12.70;;;5.10;;
73823;SDS011;62154;54.914;73.444;2023-05-14T05:41:05;6.13;;;3.92;;
73823;SDS011;62154;54.914;73.444;2023-05-14T05:43:33;9.70;;;5.00;;
73823;SDS011;62154;54.914;73.444;2023-05-14T05:46:00;14.63;;;5.80;;
73823;SDS011;62154;54.914;73.444;2023-05-14T05:48:27;26.88;;;7.18;;
73823;SDS011;62154;54.914;73.444;2023-05-14T05:51:05;19.95;;;6.15;;
73823;SDS011;62154;54.914;73.444;2023-05-14T05:53:32;29.67;;;9.07;;
73823;SDS011;62154;54.914;73.444;2023-05-14T05:55:59;15.13;;;6.40;;
73823;SDS011;62154;54.914;73.444;2023-05-14T05:58:26;26.10;;;7.28;;
73823;SDS011;62154;54.914;73.444;2023-05-14T06:00:53;22.83;;;7.05;;
73823;SDS011;62154;54.914;73.444;2023-05-14T06:03:21;45.50;;;8.80;;
73823;SDS011;62154;54.914;73.444;2023-05-14T06:05:48;26.90;;;9.50;;
73823;SDS011;62154;54.914;73.444;2023-05-14T06:08:16;34.95;;;7.90;;
73823;SDS011;62154;54.914;73.444;2023-05-14T06:10:43;37.33;;;8.45;;
73823;SDS011;62154;54.914;73.444;2023-05-14T06:13:10;31.38;;;8.45;;
73823;SDS011;62154;54.914;73.444;2023-05-14T06:15:37;24.13;;;8.95;;
73823;SDS011;62154;54.914;73.444;2023-05-14T06:18:04;25.75;;;7.13;;
73823;SDS011;62154;54.914;73.444;2023-05-14T06:20:32;33.03;;;8.10;;
73823;SDS011;62154;54.914;73.444;2023-05-14T06:22:59;42.35;;;11.20;;
73823;SDS011;62154;54.914;73.444;2023-05-14T06:25:26;28.63;;;7.50;;
73823;SDS011;62154;54.914;73.444;2023-05-14T06:27:54;25.33;;;7.85;;
73823;SDS011;62154;54.914;73.444;2023-05-14T06:30:21;26.40;;;8.20;;
73823;SDS011;62154;54.914;73.444;2023-05-14T06:32:48;20.77;;;6.80;;
73823;SDS011;62154;54.914;73.444;2023-05-14T06:35:15;20.97;;;6.23;;
73823;SDS011;62154;54.914;73.444;2023-05-14T06:37:43;7.30;;;4.70;;
73823;SDS011;62154;54.914;73.444;2023-05-14T06:40:10;15.07;;;4.72;;
73823;SDS011;62154;54.914;73.444;2023-05-14T06:42:37;10.63;;;4.45;;
73823;SDS011;62154;54.914;73.444;2023-05-14T06:45:04;8.68;;;4.55;;
73823;SDS011;62154;54.914;73.444;2023-05-14T06:47:32;8.88;;;4.05;;
73823;SDS011;62154;54.914;73.444;2023-05-14T06:49:59;7.30;;;4.35;;
73823;SDS011;62154;54.914;73.444;2023-05-14T06:52:30;12.25;;;5.30;;
73823;SDS011;62154;54.914;73.444;2023-05-14T06:54:58;9.90;;;4.18;;
73823;SDS011;62154;54.914;73.444;2023-05-14T06:57:25;6.88;;;4.28;;
73823;SDS011;62154;54.914;73.444;2023-05-14T06:59:52;6.65;;;3.88;;
73823;SDS011;62154;54.914;73.444;2023-05-14T07:02:19;9.43;;;4.03;;
73823;SDS011;62154;54.914;73.444;2023-05-14T07:04:47;11.82;;;3.95;;
73823;SDS011;62154;54.914;73.444;2023-05-14T07:07:14;6.30;;;3.90;;
73823;SDS011;62154;54.914;73.444;2023-05-14T07:09:46;11.77;;;3.22;;
73823;SDS011;62154;54.914;73.444;2023-05-14T07:12:13;8.52;;;3.72;;
73823;SDS011;62154;54.914;73.444;2023-05-14T07:14:40;6.63;;;3.03;;
73823;SDS011;62154;54.914;73.444;2023-05-14T07:17:16;8.38;;;3.50;;
73823;SDS011;62154;54.914;73.444;2023-05-14T07:19:44;9.02;;;3.80;;
73823;SDS011;62154;54.914;73.444;2023-05-14T07:22:11;7.57;;;3.72;;
73823;SDS011;62154;54.914;73.444;2023-05-14T07:24:38;8.23;;;4.04;;
73823;SDS011;62154;54.914;73.444;2023-05-14T07:27:05;9.73;;;4.07;;
73823;SDS011;62154;54.914;73.444;2023-05-14T07:29:34;7.63;;;4.78;;
73823;SDS011;62154;54.914;73.444;2023-05-14T07:32:01;13.27;;;5.78;;
73823;SDS011;62154;54.914;73.444;2023-05-14T07:34:28;32.25;;;27.10;;
73823;SDS011;62154;54.914;73.444;2023-05-14T07:36:55;30.20;;;21.02;;
73823;SDS011;62154;54.914;73.444;2023-05-14T07:39:22;8.48;;;4.22;;
73823;SDS011;62154;54.914;73.444;2023-05-14T07:41:49;7.32;;;4.18;;
73823;SDS011;62154;54.914;73.444;2023-05-14T07:44:16;6.75;;;4.03;;
73823;SDS011;62154;54.914;73.444;2023-05-14T07:46:43;8.38;;;4.20;;
73823;SDS011;62154;54.914;73.444;2023-05-14T07:49:10;7.85;;;6.03;;
73823;SDS011;62154;54.914;73.444;2023-05-14T07:51:37;6.57;;;4.68;;
73823;SDS011;62154;54.914;73.444;2023-05-14T07:54:06;8.45;;;4.57;;
73823;SDS011;62154;54.914;73.444;2023-05-14T07:56:33;13.10;;;7.78;;
73823;SDS011;62154;54.914;73.444;2023-05-14T07:59:00;10.10;;;4.90;;
73823;SDS011;62154;54.914;73.444;2023-05-14T08:01:27;15.10;;;10.88;;
73823;SDS011;62154;54.914;73.444;2023-05-14T08:03:54;10.63;;;5.03;;
73823;SDS011;62154;54.914;73.444;2023-05-14T08:06:21;7.15;;;4.25;;
73823;SDS011;62154;54.914;73.444;2023-05-14T08:08:49;8.50;;;4.40;;
73823;SDS011;62154;54.914;73.444;2023-05-14T08:11:16;9.90;;;5.47;;
73823;SDS011;62154;54.914;73.444;2023-05-14T08:13:42;13.95;;;4.53;;
73823;SDS011;62154;54.914;73.444;2023-05-14T08:16:12;12.03;;;4.83;;
73823;SDS011;62154;54.914;73.444;2023-05-14T08:18:39;8.07;;;4.85;;
73823;SDS011;62154;54.914;73.444;2023-05-14T08:21:06;10.15;;;5.32;;
73823;SDS011;62154;54.914;73.444;2023-05-14T08:23:33;18.35;;;6.43;;
73823;SDS011;62154;54.914;73.444;2023-05-14T08:26:01;18.05;;;6.20;;
73823;SDS011;62154;54.914;73.444;2023-05-14T08:28:28;14.95;;;8.18;;
73823;SDS011;62154;54.914;73.444;2023-05-14T08:30:55;10.05;;;5.70;;
73823;SDS011;62154;54.914;73.444;2023-05-14T08:33:22;9.45;;;5.13;;
73823;SDS011;62154;54.914;73.444;2023-05-14T08:35:49;11.90;;;5.32;;
73823;SDS011;62154;54.914;73.444;2023-05-14T08:38:16;11.90;;;5.50;;
73823;SDS011;62154;54.914;73.444;2023-05-14T08:40:47;10.80;;;5.28;;
73823;SDS011;62154;54.914;73.444;2023-05-14T08:43:15;7.00;;;4.63;;
73823;SDS011;62154;54.914;73.444;2023-05-14T08:45:43;9.82;;;5.88;;
73823;SDS011;62154;54.914;73.444;2023-05-14T08:48:10;13.90;;;5.82;;
73823;SDS011;62154;54.914;73.444;2023-05-14T08:50:38;13.20;;;6.13;;
73823;SDS011;62154;54.914;73.444;2023-05-14T08:53:06;12.50;;;7.00;;
73823;SDS011;62154;54.914;73.444;2023-05-14T08:55:33;15.23;;;7.20;;
73823;SDS011;62154;54.914;73.444;2023-05-14T08:58:00;13.65;;;7.00;;
73823;SDS011;62154;54.914;73.444;2023-05-14T09:00:27;16.63;;;7.53;;
73823;SDS011;62154;54.914;73.444;2023-05-14T09:02:54;14.38;;;7.28;;
73823;SDS011;62154;54.914;73.444;2023-05-14T09:05:22;17.75;;;8.43;;
73823;SDS011;62154;54.914;73.444;2023-05-14T09:07:50;16.42;;;8.05;;
73823;SDS011;62154;54.914;73.444;2023-05-14T09:10:17;25.95;;;9.90;;
73823;SDS011;62154;54.914;73.444;2023-05-14T09:12:46;24.73;;;8.00;;
73823;SDS011;62154;54.914;73.444;2023-05-14T09:15:13;25.55;;;8.00;;
73823;SDS011;62154;54.914;73.444;2023-05-14T09:17:40;27.40;;;8.35;;
73823;SDS011;62154;54.914;73.444;2023-05-14T09:20:07;14.18;;;6.35;;
73823;SDS011;62154;54.914;73.444;2023-05-14T09:22:35;9.98;;;6.20;;
73823;SDS011;62154;54.914;73.444;2023-05-14T09:25:06;11.35;;;5.72;;
73823;SDS011;62154;54.914;73.444;2023-05-14T09:27:34;15.85;;;7.22;;
73823;SDS011;62154;54.914;73.444;2023-05-14T09:32:35;14.85;;;5.88;;
73823;SDS011;62154;54.914;73.444;2023-05-14T09:35:12;18.23;;;5.20;;
73823;SDS011;62154;54.914;73.444;2023-05-14T09:37:40;19.95;;;7.93;;
73823;SDS011;62154;54.914;73.444;2023-05-14T09:40:09;9.15;;;4.90;;
73823;SDS011;62154;54.914;73.444;2023-05-14T09:42:36;14.55;;;4.22;;
73823;SDS011;62154;54.914;73.444;2023-05-14T09:45:05;12.95;;;6.50;;
73823;SDS011;62154;54.914;73.444;2023-05-14T09:47:33;12.15;;;5.22;;
73823;SDS011;62154;54.914;73.444;2023-05-14T09:49:59;12.30;;;4.40;;
73823;SDS011;62154;54.914;73.444;2023-05-14T09:52:27;16.42;;;4.78;;
73823;SDS011;62154;54.914;73.444;2023-05-14T09:54:54;13.80;;;4.60;;
73823;SDS011;62154;54.914;73.444;2023-05-14T09:57:21;15.38;;;5.07;;
73823;SDS011;62154;54.914;73.444;2023-05-14T09:59:48;10.63;;;4.55;;
73823;SDS011;62154;54.914;73.444;2023-05-14T10:02:20;9.88;;;4.10;;
73823;SDS011;62154;54.914;73.444;2023-05-14T10:08:29;11.23;;;4.47;;
73823;SDS011;62154;54.914;73.444;2023-05-14T10:10:59;14.10;;;4.53;;
73823;SDS011;62154;54.914;73.444;2023-05-14T10:13:29;10.00;;;4.10;;
73823;SDS011;62154;54.914;73.444;2023-05-14T10:16:00;9.63;;;4.35;;
73823;SDS011;62154;54.914;73.444;2023-05-14T10:18:36;6.18;;;4.03;;
73823;SDS011;62154;54.914;73.444;2023-05-14T10:21:05;9.05;;;3.03;;
73823;SDS011;62154;54.914;73.444;2023-05-14T10:23:33;8.00;;;3.70;;
73823;SDS011;62154;54.914;73.444;2023-05-14T10:26:04;6.47;;;4.13;;
73823;SDS011;62154;54.914;73.444;2023-05-14T10:28:31;8.55;;;3.97;;
73823;SDS011;62154;54.914;73.444;2023-05-14T10:30:58;5.75;;;3.40;;
73823;SDS011;62154;54.914;73.444;2023-05-14T10:33:26;8.13;;;3.42;;
73823;SDS011;62154;54.914;73.444;2023-05-14T10:38:27;6.03;;;3.58;;
73823;SDS011;62154;54.914;73.444;2023-05-14T10:41:08;8.18;;;3.80;;
73823;SDS011;62154;54.914;73.444;2023-05-14T10:43:37;10.27;;;3.75;;
73823;SDS011;62154;54.914;73.444;2023-05-14T10:46:05;8.50;;;3.53;;
73823;SDS011;62154;54.914;73.444;2023-05-14T10:48:32;9.50;;;3.40;;
73823;SDS011;62154;54.914;73.444;2023-05-14T10:50:59;9.52;;;3.95;;
73823;SDS011;62154;54.914;73.444;2023-05-14T10:53:37;10.18;;;4.15;;
73823;SDS011;62154;54.914;73.444;2023-05-14T10:56:05;8.82;;;4.25;;
73823;SDS011;62154;54.914;73.444;2023-05-14T10:58:36;11.07;;;6.40;;
73823;SDS011;62154;54.914;73.444;2023-05-14T11:01:07;10.80;;;5.40;;
73823;SDS011;62154;54.914;73.444;2023-05-14T11:03:44;8.32;;;3.45;;
73823;SDS011;62154;54.914;73.444;2023-05-14T11:06:12;5.70;;;3.70;;
73823;SDS011;62154;54.914;73.444;2023-05-14T11:08:40;7.47;;;3.53;;
73823;SDS011;62154;54.914;73.444;2023-05-14T11:11:11;9.00;;;4.13;;
73823;SDS011;62154;54.914;73.444;2023-05-14T11:13:38;4.05;;;3.08;;
73823;SDS011;62154;54.914;73.444;2023-05-14T11:16:05;12.20;;;5.80;;
73823;SDS011;62154;54.914;73.444;2023-05-14T11:18:33;10.63;;;4.83;;
73823;SDS011;62154;54.914;73.444;2023-05-14T11:21:04;7.10;;;3.85;;
73823;SDS011;62154;54.914;73.444;2023-05-14T11:23:30;9.63;;;4.00;;
73823;SDS011;62154;54.914;73.444;2023-05-14T11:25:58;19.70;;;9.68;;
73823;SDS011;62154;54.914;73.444;2023-05-14T11:28:25;8.57;;;5.05;;
73823;SDS011;62154;54.914;73.444;2023-05-14T11:30:52;19.33;;;6.82;;
73823;SDS011;62154;54.914;73.444;2023-05-14T11:33:20;5.65;;;3.33;;
73823;SDS011;62154;54.914;73.444;2023-05-14T11:35:47;7.03;;;2.95;;
73823;SDS011;62154;54.914;73.444;2023-05-14T11:38:17;7.32;;;4.70;;
73823;SDS011;62154;54.914;73.444;2023-05-14T11:40:52;10.18;;;6.80;;
73823;SDS011;62154;54.914;73.444;2023-05-14T11:43:20;6.05;;;2.90;;
73823;SDS011;62154;54.914;73.444;2023-05-14T11:45:49;9.55;;;5.43;;
73823;SDS011;62154;54.914;73.444;2023-05-14T11:48:20;14.38;;;7.28;;
73823;SDS011;62154;54.914;73.444;2023-05-14T11:50:50;26.30;;;13.82;;
73823;SDS011;62154;54.914;73.444;2023-05-14T11:53:28;14.73;;;9.45;;
73823;SDS011;62154;54.914;73.444;2023-05-14T11:55:56;14.95;;;8.13;;
73823;SDS011;62154;54.914;73.444;2023-05-14T11:58:23;25.08;;;14.88;;
73823;SDS011;62154;54.914;73.444;2023-05-14T12:00:54;14.82;;;8.95;;
73823;SDS011;62154;54.914;73.444;2023-05-14T12:03:21;8.48;;;3.92;;
73823;SDS011;62154;54.914;73.444;2023-05-14T12:05:58;13.80;;;7.60;;
73823;SDS011;62154;54.914;73.444;2023-05-14T12:08:26;17.23;;;8.73;;
73823;SDS011;62154;54.914;73.444;2023-05-14T12:10:53;16.15;;;10.45;;
73823;SDS011;62154;54.914;73.444;2023-05-14T12:13:23;15.48;;;8.57;;
73823;SDS011;62154;54.914;73.444;2023-05-14T12:15:55;6.93;;;3.95;;
73823;SDS011;62154;54.914;73.444;2023-05-14T12:18:29;14.82;;;8.95;;
73823;SDS011;62154;54.914;73.444;2023-05-14T12:21:03;7.70;;;3.53;;
73823;SDS011;62154;54.914;73.444;2023-05-14T12:23:30;5.85;;;3.28;;
73823;SDS011;62154;54.914;73.444;2023-05-14T12:26:01;8.95;;;2.72;;
73823;SDS011;62154;54.914;73.444;2023-05-14T12:28:29;10.85;;;5.57;;
73823;SDS011;62154;54.914;73.444;2023-05-14T12:30:56;9.20;;;3.95;;
73823;SDS011;62154;54.914;73.444;2023-05-14T12:33:24;10.88;;;5.45;;
73823;SDS011;62154;54.914;73.444;2023-05-14T12:35:52;9.45;;;4.38;;
73823;SDS011;62154;54.914;73.444;2023-05-14T12:38:19;6.72;;;3.22;;
73823;SDS011;62154;54.914;73.444;2023-05-14T12:40:46;8.20;;;4.70;;
73823;SDS011;62154;54.914;73.444;2023-05-14T12:43:13;9.63;;;3.53;;
73823;SDS011;62154;54.914;73.444;2023-05-14T12:45:40;6.18;;;2.92;;
73823;SDS011;62154;54.914;73.444;2023-05-14T12:48:07;10.07;;;4.13;;
73823;SDS011;62154;54.914;73.444;2023-05-14T12:50:34;14.20;;;5.55;;
73823;SDS011;62154;54.914;73.444;2023-05-14T12:53:04;15.00;;;7.28;;
73823;SDS011;62154;54.914;73.444;2023-05-14T12:55:31;7.75;;;4.32;;
73823;SDS011;62154;54.914;73.444;2023-05-14T12:57:59;9.85;;;5.28;;
73823;SDS011;62154;54.914;73.444;2023-05-14T13:00:26;9.25;;;5.15;;
73823;SDS011;62154;54.914;73.444;2023-05-14T13:02:53;18.30;;;6.82;;
73823;SDS011;62154;54.914;73.444;2023-05-14T13:05:20;10.35;;;5.80;;
73823;SDS011;62154;54.914;73.444;2023-05-14T13:07:47;17.87;;;7.07;;
73823;SDS011;62154;54.914;73.444;2023-05-14T13:10:14;16.25;;;7.32;;
73823;SDS011;62154;54.914;73.444;2023-05-14T13:12:45;12.18;;;6.85;;
73823;SDS011;62154;54.914;73.444;2023-05-14T13:15:12;14.32;;;7.38;;
73823;SDS011;62154;54.914;73.444;2023-05-14T13:17:39;13.85;;;7.95;;
73823;SDS011;62154;54.914;73.444;2023-05-14T13:20:07;20.25;;;8.80;;
73823;SDS011;62154;54.914;73.444;2023-05-14T13:22:34;13.35;;;6.40;;
73823;SDS011;62154;54.914;73.444;2023-05-14T13:25:01;14.48;;;7.70;;
73823;SDS011;62154;54.914;73.444;2023-05-14T13:27:33;31.45;;;20.63;;
73823;SDS011;62154;54.914;73.444;2023-05-14T13:30:03;30.40;;;18.73;;
73823;SDS011;62154;54.914;73.444;2023-05-14T13:32:33;23.58;;;14.45;;
73823;SDS011;62154;54.914;73.444;2023-05-14T13:35:05;27.50;;;13.88;;
73823;SDS011;62154;54.914;73.444;2023-05-14T13:37:35;29.67;;;14.52;;
73823;SDS011;62154;54.914;73.444;2023-05-14T13:40:02;23.38;;;13.40;;
73823;SDS011;62154;54.914;73.444;2023-05-14T13:42:37;19.33;;;12.77;;
73823;SDS011;62154;54.914;73.444;2023-05-14T13:45:08;14.35;;;9.27;;
73823;SDS011;62154;54.914;73.444;2023-05-14T13:47:35;61.25;;;35.35;;
73823;SDS011;62154;54.914;73.444;2023-05-14T13:50:02;23.08;;;11.60;;
73823;SDS011;62154;54.914;73.444;2023-05-14T13:52:31;41.20;;;25.50;;
73823;SDS011;62154;54.914;73.444;2023-05-14T13:54:58;9.98;;;5.20;;
73823;SDS011;62154;54.914;73.444;2023-05-14T13:57:26;9.13;;;4.40;;
73823;SDS011;62154;54.914;73.444;2023-05-14T13:59:53;9.40;;;3.85;;
73823;SDS011;62154;54.914;73.444;2023-05-14T14:02:20;5.88;;;3.88;;
73823;SDS011;62154;54.914;73.444;2023-05-14T14:04:46;7.90;;;4.13;;
73823;SDS011;62154;54.914;73.444;2023-05-14T14:07:14;6.38;;;4.35;;
73823;SDS011;62154;54.914;73.444;2023-05-14T14:09:42;14.35;;;6.43;;
73823;SDS011;62154;54.914;73.444;2023-05-14T14:12:10;6.70;;;4.40;;
73823;SDS011;62154;54.914;73.444;2023-05-14T14:14:38;12.10;;;5.40;;
73823;SDS011;62154;54.914;73.444;2023-05-14T14:17:06;13.27;;;6.43;;
73823;SDS011;62154;54.914;73.444;2023-05-14T14:19:34;15.65;;;6.47;;
73823;SDS011;62154;54.914;73.444;2023-05-14T14:22:01;15.65;;;6.70;;
73823;SDS011;62154;54.914;73.444;2023-05-14T14:24:28;10.57;;;4.47;;
73823;SDS011;62154;54.914;73.444;2023-05-14T14:26:54;16.02;;;5.13;;
73823;SDS011;62154;54.914;73.444;2023-05-14T14:29:21;18.55;;;9.80;;
73823;SDS011;62154;54.914;73.444;2023-05-14T14:31:49;32.85;;;16.13;;
73823;SDS011;62154;54.914;73.444;2023-05-14T14:34:16;88.68;;;44.38;;
73823;SDS011;62154;54.914;73.444;2023-05-14T14:36:43;89.57;;;48.15;;
73823;SDS011;62154;54.914;73.444;2023-05-14T14:39:10;46.30;;;21.85;;
73823;SDS011;62154;54.914;73.444;2023-05-14T14:41:37;31.63;;;14.00;;
73823;SDS011;62154;54.914;73.444;2023-05-14T14:44:06;23.50;;;9.82;;